createdAt,value
2018-12-27T00:00:47.291Z,77.83
2018-12-27T00:01:47.281Z,77.96
2018-12-27T00:02:54.646Z,78.07
2018-12-27T00:03:48.256Z,78.59
2018-12-27T00:04:47.244Z,79.56
2018-12-27T00:05:47.235Z,80.40
2018-12-27T00:06:47.268Z,81.43
2018-12-27T00:07:47.213Z,79.87
2018-12-27T00:08:47.205Z,80.40
2018-12-27T00:09:47.196Z,81.23
2018-12-27T00:10:47.192Z,81.65
2018-12-27T00:11:47.174Z,81.96
2018-12-27T00:12:47.177Z,82.10
2018-12-27T00:13:47.147Z,81.89
2018-12-27T00:14:47.145Z,82.72
2018-12-27T00:15:47.135Z,82.82
2018-12-27T00:16:47.118Z,82.82
2018-12-27T00:17:47.123Z,81.99
2018-12-27T00:18:47.095Z,78.34
2018-12-27T00:19:47.092Z,79.18
2018-12-27T00:20:47.080Z,79.28
2018-12-27T00:21:47.089Z,79.60
2018-12-27T00:22:47.059Z,79.39
2018-12-27T00:23:47.047Z,79.46
2018-12-27T00:24:47.034Z,79.98
2018-12-27T00:25:47.021Z,79.77
2018-12-27T00:26:47.036Z,80.08
2018-12-27T00:27:47.003Z,79.98
2018-12-27T00:28:47.015Z,79.87
2018-12-27T00:29:46.990Z,80.50
2018-12-27T00:30:46.969Z,80.60
2018-12-27T00:31:46.964Z,81.99
2018-12-27T00:32:46.978Z,81.62
2018-12-27T00:33:46.945Z,82.62
2018-12-27T00:34:46.934Z,82.72
2018-12-27T00:35:46.923Z,83.14
2018-12-27T00:36:46.908Z,84.12
2018-12-27T00:37:46.897Z,84.18
2018-12-27T00:38:46.907Z,84.33
2018-12-27T00:39:46.877Z,83.91
2018-12-27T00:40:46.873Z,84.33
2018-12-27T00:41:47.058Z,84.53
2018-12-27T00:42:46.874Z,85.47
2018-12-27T00:43:46.857Z,85.99
2018-12-27T00:44:46.826Z,85.89
2018-12-27T00:45:46.820Z,85.51
2018-12-27T00:46:46.846Z,86.13
2018-12-27T00:47:46.797Z,84.88
2018-12-27T00:48:46.790Z,84.99
2018-12-27T00:49:46.816Z,86.03
2018-12-27T00:50:46.759Z,85.93
2018-12-27T00:51:46.758Z,87.18
2018-12-27T00:52:46.746Z,87.70
2018-12-27T00:53:46.735Z,87.74
2018-12-27T00:54:46.747Z,86.49
2018-12-27T00:55:46.711Z,86.59
2018-12-27T00:56:46.698Z,86.80
2018-12-27T00:57:46.686Z,87.01
2018-12-27T00:58:46.675Z,87.74
2018-12-27T00:59:46.666Z,88.57
2018-12-27T01:00:46.688Z,88.06
2018-12-27T01:01:46.655Z,88.57
2018-12-27T01:02:46.633Z,88.68
2018-12-27T01:03:46.624Z,88.37
2018-12-27T01:04:46.616Z,87.53
2018-12-27T01:05:46.613Z,89.56
2018-12-27T01:06:46.617Z,89.62
2018-12-27T01:07:46.586Z,88.57
2018-12-27T01:08:46.576Z,88.82
2018-12-27T01:09:46.584Z,89.34
2018-12-27T01:10:46.678Z,89.20
2018-12-27T01:11:46.542Z,89.41
2018-12-27T01:12:46.533Z,87.22
2018-12-27T01:13:46.639Z,87.22
2018-12-27T01:14:46.628Z,86.91
2018-12-27T01:15:46.529Z,87.22
2018-12-27T01:16:46.487Z,84.19
2018-12-27T01:17:46.474Z,84.50
2018-12-27T01:18:46.488Z,84.78
2018-12-27T01:19:46.457Z,83.53
2018-12-27T01:20:46.445Z,81.55
2018-12-27T01:21:46.454Z,81.51
2018-12-27T01:22:46.422Z,78.34
2018-12-27T01:23:46.414Z,79.08
2018-12-27T01:24:46.405Z,78.77
2018-12-27T01:25:46.398Z,78.45
2018-12-27T01:26:46.385Z,82.17
2018-12-27T01:27:46.396Z,82.89
2018-12-27T01:28:46.365Z,81.58
2018-12-27T01:29:46.351Z,80.64
2018-12-27T01:30:46.363Z,80.22
2018-12-27T01:31:50.618Z,77.51
2018-12-27T01:32:46.316Z,78.63
2018-12-27T01:33:46.307Z,77.79
2018-12-27T01:34:46.304Z,77.27
2018-12-27T01:35:46.291Z,76.23
2018-12-27T01:36:46.274Z,75.05
2018-12-27T01:37:46.284Z,75.15
2018-12-27T01:38:46.256Z,74.70
2018-12-27T01:39:46.243Z,75.54
2018-12-27T01:40:46.238Z,76.26
2018-12-27T01:41:46.225Z,75.32
2018-12-27T01:42:46.247Z,75.22
2018-12-27T01:43:46.207Z,74.91
2018-12-27T01:44:46.192Z,74.49
2018-12-27T01:45:46.201Z,74.39
2018-12-27T01:46:46.171Z,74.18
2018-12-27T01:47:46.158Z,74.25
2018-12-27T01:48:46.173Z,73.32
2018-12-27T01:49:46.143Z,74.35
2018-12-27T01:50:46.129Z,73.00
2018-12-27T01:51:46.123Z,73.52
2018-12-27T01:52:46.112Z,75.50
2018-12-27T01:53:46.124Z,73.63
2018-12-27T01:54:46.089Z,75.54
2018-12-27T01:55:46.085Z,77.37
2018-12-27T01:56:46.065Z,77.09
2018-12-27T01:57:46.056Z,74.70
2018-12-27T01:58:46.045Z,74.60
2018-12-27T01:59:46.054Z,74.49
2018-12-27T02:00:46.034Z,74.60
2018-12-27T02:01:46.017Z,74.70
2018-12-27T02:02:46.006Z,77.61
2018-12-27T02:03:46.021Z,78.45
2018-12-27T02:04:45.981Z,79.69
2018-12-27T02:05:45.983Z,77.03
2018-12-27T02:06:45.964Z,77.75
2018-12-27T02:07:45.961Z,79.00
2018-12-27T02:08:45.945Z,79.00
2018-12-27T02:09:45.952Z,81.40
2018-12-27T02:10:45.925Z,80.19
2018-12-27T02:11:45.914Z,80.19
2018-12-27T02:12:45.898Z,76.86
2018-12-27T02:13:45.912Z,75.50
2018-12-27T02:14:45.893Z,74.84
2018-12-27T02:15:45.867Z,75.46
2018-12-27T02:16:45.858Z,74.84
2018-12-27T02:17:45.850Z,75.22
2018-12-27T02:18:45.840Z,74.80
2018-12-27T02:19:45.844Z,78.66
2018-12-27T02:20:45.815Z,76.51
2018-12-27T02:21:45.803Z,76.61
2018-12-27T02:22:45.959Z,79.42
2018-12-27T02:23:45.785Z,77.65
2018-12-27T02:24:45.791Z,79.52
2018-12-27T02:25:45.781Z,77.89
2018-12-27T02:26:45.750Z,77.37
2018-12-27T02:27:45.740Z,74.77
2018-12-27T02:28:45.732Z,75.57
2018-12-27T02:29:45.724Z,74.84
2018-12-27T02:30:45.741Z,74.95
2018-12-27T02:31:45.703Z,75.36
2018-12-27T02:32:45.688Z,76.06
2018-12-27T02:33:45.675Z,77.61
2018-12-27T02:34:45.666Z,74.49
2018-12-27T02:35:45.656Z,75.64
2018-12-27T02:36:45.674Z,75.15
2018-12-27T02:37:45.640Z,74.91
2018-12-27T02:38:45.623Z,74.18
2018-12-27T02:39:45.616Z,72.83
2018-12-27T02:40:45.607Z,74.08
2018-12-27T02:41:45.600Z,73.83
2018-12-27T02:42:45.612Z,75.32
2018-12-27T02:43:45.581Z,72.83
2018-12-27T02:44:45.562Z,72.80
2018-12-27T02:45:45.549Z,74.04
2018-12-27T02:46:45.541Z,74.57
2018-12-27T02:47:45.534Z,72.41
2018-12-27T02:48:45.540Z,73.73
2018-12-27T02:49:45.538Z,72.28
2018-12-27T02:50:45.506Z,72.69
2018-12-27T02:51:45.492Z,72.17
2018-12-27T02:52:45.478Z,71.97
2018-12-27T02:53:45.465Z,72.28
2018-12-27T02:54:45.465Z,72.17
2018-12-27T02:55:45.484Z,71.44
2018-12-27T02:56:45.436Z,71.86
2018-12-27T02:57:45.424Z,71.34
2018-12-27T02:58:45.425Z,71.55
2018-12-27T02:59:45.404Z,71.20
2018-12-27T03:00:45.396Z,71.20
2018-12-27T03:01:45.406Z,71.51
2018-12-27T03:02:45.378Z,71.38
2018-12-27T03:03:45.383Z,72.14
2018-12-27T03:04:45.355Z,71.51
2018-12-27T03:05:45.340Z,71.72
2018-12-27T03:06:45.355Z,71.20
2018-12-27T03:07:45.320Z,72.66
2018-12-27T03:08:45.319Z,72.66
2018-12-27T03:09:45.304Z,72.45
2018-12-27T03:10:45.287Z,71.17
2018-12-27T03:11:45.279Z,72.42
2018-12-27T03:12:45.298Z,71.72
2018-12-27T03:13:45.266Z,72.66
2018-12-27T03:14:45.254Z,72.55
2018-12-27T03:15:45.246Z,71.93
2018-12-27T03:16:45.226Z,72.34
2018-12-27T03:17:45.213Z,72.66
2018-12-27T03:18:45.228Z,72.97
2018-12-27T03:19:45.197Z,72.14
2018-12-27T03:20:45.187Z,71.86
2018-12-27T03:21:45.179Z,71.51
2018-12-27T03:22:45.170Z,72.76
2018-12-27T03:23:45.155Z,72.14
2018-12-27T03:24:45.159Z,72.55
2018-12-27T03:25:45.134Z,73.49
2018-12-27T03:26:45.134Z,75.71
2018-12-27T03:27:45.114Z,74.88
2018-12-27T03:28:45.101Z,76.43
2018-12-27T03:29:45.106Z,73.11
2018-12-27T03:30:45.081Z,74.88
2018-12-27T03:31:45.073Z,75.71
2018-12-27T03:32:45.096Z,76.26
2018-12-27T03:33:52.444Z,75.43
2018-12-27T03:34:46.040Z,75.95
2018-12-27T03:35:45.030Z,75.01
2018-12-27T03:36:45.017Z,75.22
2018-12-27T03:37:45.015Z,74.39
2018-12-27T03:38:45.045Z,74.80
2018-12-27T03:39:45.014Z,75.05
2018-12-27T03:40:45.002Z,75.01
2018-12-27T03:41:44.973Z,75.67
2018-12-27T03:42:44.952Z,75.88
2018-12-27T03:43:44.941Z,76.20
2018-12-27T03:44:44.935Z,76.72
2018-12-27T03:45:44.930Z,76.20
2018-12-27T03:46:44.938Z,77.37
2018-12-27T03:47:44.902Z,76.96
2018-12-27T03:48:44.891Z,78.73
2018-12-27T03:49:44.883Z,79.35
2018-12-27T03:50:44.868Z,79.49
2018-12-27T03:51:44.859Z,79.60
2018-12-27T03:52:44.873Z,79.80
2018-12-27T03:53:44.843Z,80.54
2018-12-27T03:54:44.832Z,80.16
2018-12-27T03:55:44.818Z,80.78
2018-12-27T03:56:44.806Z,80.47
2018-12-27T03:57:44.794Z,79.43
2018-12-27T03:58:44.816Z,77.66
2018-12-27T03:59:44.777Z,76.40
2018-12-27T04:00:44.763Z,76.72
2018-12-27T04:01:44.769Z,75.15
2018-12-27T04:02:44.740Z,75.12
2018-12-27T04:03:44.761Z,76.68
2018-12-27T04:04:44.724Z,75.01
2018-12-27T04:05:44.717Z,74.66
2018-12-27T04:06:44.705Z,74.25
2018-12-27T04:07:44.690Z,74.60
2018-12-27T04:08:44.686Z,73.73
2018-12-27T04:09:44.683Z,73.21
2018-12-27T04:10:44.659Z,73.32
2018-12-27T04:11:44.649Z,73.32
2018-12-27T04:12:44.643Z,74.87
2018-12-27T04:13:44.630Z,74.87
2018-12-27T04:14:44.635Z,74.35
2018-12-27T04:15:44.605Z,74.25
2018-12-27T04:16:44.596Z,75.19
2018-12-27T04:17:44.588Z,74.66
2018-12-27T04:18:44.580Z,74.25
2018-12-27T04:19:44.591Z,74.46
2018-12-27T04:20:44.579Z,75.09
2018-12-27T04:21:44.538Z,74.25
2018-12-27T04:22:44.530Z,74.25
2018-12-27T04:23:44.526Z,73.83
2018-12-27T04:24:44.510Z,75.29
2018-12-27T04:25:44.520Z,75.81
2018-12-27T04:26:44.492Z,74.98
2018-12-27T04:27:44.479Z,74.18
2018-12-27T04:28:44.469Z,74.91
2018-12-27T04:29:44.460Z,75.01
2018-12-27T04:30:44.476Z,76.06
2018-12-27T04:31:44.435Z,76.16
2018-12-27T04:32:44.423Z,75.78
2018-12-27T04:33:44.410Z,76.86
2018-12-27T04:34:44.400Z,76.20
2018-12-27T04:35:44.391Z,77.17
2018-12-27T04:36:44.401Z,79.57
2018-12-27T04:37:44.399Z,79.71
2018-12-27T04:38:44.404Z,79.33
2018-12-27T04:39:44.354Z,80.27
2018-12-27T04:40:44.339Z,80.51
2018-12-27T04:41:44.348Z,79.82
2018-12-27T04:42:44.434Z,80.44
2018-12-27T04:43:44.306Z,81.52
2018-12-27T04:44:44.301Z,81.42
2018-12-27T04:45:44.295Z,81.95
2018-12-27T04:46:44.274Z,83.30
2018-12-27T04:47:44.281Z,82.82
2018-12-27T04:48:44.258Z,83.34
2018-12-27T04:49:44.251Z,83.27
2018-12-27T04:50:44.241Z,84.42
2018-12-27T04:51:44.224Z,85.30
2018-12-27T04:52:44.237Z,85.51
2018-12-27T04:53:44.202Z,85.72
2018-12-27T04:54:44.189Z,85.75
2018-12-27T04:55:44.180Z,86.38
2018-12-27T04:56:44.177Z,87.54
2018-12-27T04:57:44.162Z,86.00
2018-12-27T04:58:44.177Z,86.43
2018-12-27T04:59:44.139Z,87.68
2018-12-27T05:00:44.128Z,87.89
2018-12-27T05:01:44.121Z,87.93
2018-12-27T05:02:44.139Z,87.16
2018-12-27T05:03:44.097Z,88.04
2018-12-27T05:04:44.113Z,87.62
2018-12-27T05:05:44.074Z,87.62
2018-12-27T05:06:44.061Z,87.83
2018-12-27T05:07:44.055Z,88.04
2018-12-27T05:08:44.046Z,87.72
2018-12-27T05:09:44.035Z,87.72
2018-12-27T05:10:44.042Z,87.62
2018-12-27T05:11:44.011Z,87.09
2018-12-27T05:12:43.999Z,87.51
2018-12-27T05:13:43.998Z,86.78
2018-12-27T05:14:43.976Z,87.62
2018-12-27T05:15:43.992Z,87.30
2018-12-27T05:16:43.958Z,86.88
2018-12-27T05:17:43.950Z,87.93
2018-12-27T05:18:43.935Z,87.09
2018-12-27T05:19:43.926Z,86.57
2018-12-27T05:20:43.915Z,86.25
2018-12-27T05:21:43.928Z,85.69
2018-12-27T05:22:43.907Z,85.69
2018-12-27T05:23:43.885Z,86.11
2018-12-27T05:24:43.881Z,86.78
2018-12-27T05:25:43.877Z,86.57
2018-12-27T05:26:43.846Z,86.15
2018-12-27T05:27:43.839Z,87.62
2018-12-27T05:28:43.848Z,87.30
2018-12-27T05:29:43.821Z,87.66
2018-12-27T05:30:43.828Z,87.45
2018-12-27T05:31:43.798Z,87.76
2018-12-27T05:32:43.784Z,88.18
2018-12-27T05:33:43.802Z,88.18
2018-12-27T05:34:43.769Z,87.34
2018-12-27T05:35:43.754Z,87.87
2018-12-27T05:36:43.775Z,88.18
2018-12-27T05:37:43.728Z,88.07
2018-12-27T05:38:43.717Z,88.85
2018-12-27T05:39:43.709Z,89.17
2018-12-27T05:40:43.700Z,88.64
2018-12-27T05:41:43.692Z,88.64
2018-12-27T05:42:43.703Z,89.17
2018-12-27T05:43:43.694Z,88.75
2018-12-27T05:44:43.688Z,90.00
2018-12-27T05:45:43.654Z,90.00
2018-12-27T05:46:43.634Z,89.31
2018-12-27T05:47:43.624Z,89.27
2018-12-27T05:48:43.635Z,88.96
2018-12-27T05:49:43.610Z,89.17
2018-12-27T05:50:43.591Z,89.69
2018-12-27T05:51:43.579Z,89.17
2018-12-27T05:52:43.576Z,88.96
2018-12-27T05:53:43.584Z,90.11
2018-12-27T05:54:43.550Z,89.90
2018-12-27T05:55:43.541Z,89.94
2018-12-27T05:56:43.528Z,90.67
2018-12-27T05:57:43.516Z,91.20
2018-12-27T05:58:43.506Z,91.09
2018-12-27T05:59:43.520Z,91.56
2018-12-27T06:00:43.490Z,91.77
2018-12-27T06:01:43.476Z,92.29
2018-12-27T06:02:43.465Z,92.40
2018-12-27T06:03:43.458Z,92.40
2018-12-27T06:04:43.444Z,92.40
2018-12-27T06:05:43.449Z,92.86
2018-12-27T06:06:43.428Z,93.02
2018-12-27T06:07:43.414Z,93.18
2018-12-27T06:08:43.397Z,93.66
2018-12-27T06:09:43.448Z,93.87
2018-12-27T06:10:43.377Z,94.43
2018-12-27T06:11:43.369Z,93.02
2018-12-27T06:12:43.361Z,92.50
2018-12-27T06:13:43.348Z,92.46
2018-12-27T06:14:43.355Z,91.58
2018-12-27T06:15:43.347Z,90.91
2018-12-27T06:16:43.314Z,89.97
2018-12-27T06:17:43.304Z,88.56
2018-12-27T06:18:43.295Z,88.10
2018-12-27T06:19:43.298Z,86.18
2018-12-27T06:20:43.279Z,85.61
2018-12-27T06:21:43.268Z,86.14
2018-12-27T06:22:43.251Z,86.04
2018-12-27T06:23:43.266Z,83.48
2018-12-27T06:24:43.234Z,83.65
2018-12-27T06:25:43.241Z,82.19
2018-12-27T06:26:43.237Z,81.87
2018-12-27T06:27:43.206Z,80.48
2018-12-27T06:28:43.186Z,80.79
2018-12-27T06:29:43.195Z,81.73
2018-12-27T06:30:43.199Z,82.57
2018-12-27T06:31:43.171Z,81.63
2018-12-27T06:32:43.149Z,80.69
2018-12-27T06:33:43.139Z,80.69
2018-12-27T06:34:43.150Z,80.48
2018-12-27T06:35:43.120Z,79.29
2018-12-27T06:36:43.100Z,78.04
2018-12-27T06:37:43.094Z,77.41
2018-12-27T06:38:43.087Z,76.33
2018-12-27T06:39:43.074Z,76.02
2018-12-27T06:40:43.074Z,75.39
2018-12-27T06:41:43.048Z,75.57
2018-12-27T06:42:43.042Z,76.51
2018-12-27T06:43:43.043Z,76.20
2018-12-27T06:44:43.021Z,75.05
2018-12-27T06:45:43.008Z,75.57
2018-12-27T06:46:43.022Z,77.14
2018-12-27T06:47:42.988Z,75.15
2018-12-27T06:48:42.972Z,76.65
2018-12-27T06:49:42.962Z,75.46
2018-12-27T06:50:42.956Z,75.46
2018-12-27T06:51:42.941Z,75.05
2018-12-27T06:52:42.999Z,75.98
2018-12-27T06:53:42.922Z,76.30
2018-12-27T06:54:42.931Z,76.82
2018-12-27T06:55:42.903Z,76.92
2018-12-27T06:56:42.893Z,76.96
2018-12-27T06:57:42.879Z,77.62
2018-12-27T06:58:42.886Z,77.41
2018-12-27T06:59:42.860Z,78.49
2018-12-27T07:00:42.869Z,81.04
2018-12-27T07:01:42.834Z,80.55
2018-12-27T07:02:42.828Z,81.49
2018-12-27T07:03:42.816Z,81.95
2018-12-27T07:04:48.916Z,82.06
2018-12-27T07:05:43.819Z,80.80
2018-12-27T07:06:42.788Z,80.90
2018-12-27T07:07:42.777Z,82.37
2018-12-27T07:08:42.759Z,81.18
2018-12-27T07:09:42.798Z,81.39
2018-12-27T07:10:42.798Z,80.20
2018-12-27T07:11:42.753Z,79.44
2018-12-27T07:12:42.720Z,79.22
2018-12-27T07:13:42.706Z,78.14
2018-12-27T07:14:42.694Z,77.17
2018-12-27T07:15:42.695Z,76.02
2018-12-27T07:16:42.694Z,76.72
2018-12-27T07:17:42.665Z,76.09
2018-12-27T07:18:42.654Z,76.51
2018-12-27T07:19:42.653Z,76.92
2018-12-27T07:20:42.628Z,75.81
2018-12-27T07:21:42.644Z,77.14
2018-12-27T07:22:42.608Z,76.96
2018-12-27T07:23:42.600Z,77.59
2018-12-27T07:24:42.595Z,77.27
2018-12-27T07:25:42.583Z,78.84
2018-12-27T07:26:42.566Z,79.40
2018-12-27T07:27:42.579Z,79.92
2018-12-27T07:28:42.550Z,79.85
2018-12-27T07:29:42.570Z,80.27
2018-12-27T07:30:42.574Z,80.38
2018-12-27T07:31:42.555Z,80.06
2018-12-27T07:32:42.501Z,79.85
2018-12-27T07:33:42.517Z,79.75
2018-12-27T07:34:42.481Z,79.61
2018-12-27T07:35:42.522Z,78.56
2018-12-27T07:36:42.464Z,77.10
2018-12-27T07:37:42.449Z,77.94
2018-12-27T07:38:42.441Z,76.57
2018-12-27T07:39:42.449Z,78.14
2018-12-27T07:40:42.414Z,79.44
2018-12-27T07:41:42.423Z,78.56
2018-12-27T07:42:42.396Z,79.82
2018-12-27T07:43:42.389Z,80.27
2018-12-27T07:44:42.394Z,80.48
2018-12-27T07:45:42.362Z,80.27
2018-12-27T07:46:42.353Z,80.93
2018-12-27T07:47:42.339Z,81.56
2018-12-27T07:48:42.358Z,83.38
2018-12-27T07:49:42.321Z,84.42
2018-12-27T07:50:42.329Z,84.22
2018-12-27T07:51:42.335Z,84.46
2018-12-27T07:52:42.325Z,84.46
2018-12-27T07:53:42.283Z,84.08
2018-12-27T07:54:42.277Z,84.29
2018-12-27T07:55:42.277Z,83.14
2018-12-27T07:56:42.253Z,84.67
2018-12-27T07:57:42.243Z,82.26
2018-12-27T07:58:42.360Z,80.03
2018-12-27T07:59:42.209Z,78.42
2018-12-27T08:00:42.206Z,76.30
2018-12-27T08:01:42.218Z,75.74
2018-12-27T08:02:42.186Z,75.50
2018-12-27T08:03:42.175Z,75.08
2018-12-27T08:04:42.158Z,74.11
2018-12-27T08:05:42.149Z,74.38
2018-12-27T08:06:42.138Z,73.45
2018-12-27T08:07:42.155Z,72.47
2018-12-27T08:08:42.120Z,72.47
2018-12-27T08:09:42.110Z,71.61
2018-12-27T08:10:42.105Z,71.95
2018-12-27T08:11:42.124Z,71.30
2018-12-27T08:12:42.105Z,72.86
2018-12-27T08:13:42.102Z,72.34
2018-12-27T08:14:42.055Z,72.75
2018-12-27T08:15:42.047Z,71.71
2018-12-27T08:16:42.032Z,72.55
2018-12-27T08:17:42.039Z,72.55
2018-12-27T08:18:42.015Z,72.55
2018-12-27T08:19:42.000Z,72.96
2018-12-27T08:20:41.993Z,72.02
2018-12-27T08:21:41.981Z,72.96
2018-12-27T08:22:41.988Z,72.75
2018-12-27T08:23:41.966Z,72.86
2018-12-27T08:24:41.945Z,72.86
2018-12-27T08:25:41.943Z,74.32
2018-12-27T08:26:41.925Z,73.38
2018-12-27T08:27:41.939Z,74.42
2018-12-27T08:28:41.914Z,74.52
2018-12-27T08:29:41.899Z,72.78
2018-12-27T08:30:41.884Z,75.05
2018-12-27T08:31:41.887Z,75.40
2018-12-27T08:32:41.890Z,73.07
2018-12-27T08:33:41.891Z,72.44
2018-12-27T08:34:41.863Z,70.36
2018-12-27T08:35:41.931Z,69.42
2018-12-27T08:36:41.816Z,69.07
2018-12-27T08:37:41.810Z,70.92
2018-12-27T08:38:41.815Z,68.73
2018-12-27T08:39:41.785Z,67.79
2018-12-27T08:40:41.785Z,66.44
2018-12-27T08:41:41.770Z,65.68
2018-12-27T08:42:41.758Z,65.89
2018-12-27T08:43:41.767Z,66.30
2018-12-27T08:44:41.762Z,66.17
2018-12-27T08:45:41.724Z,64.43
2018-12-27T08:46:41.723Z,65.34
2018-12-27T08:47:41.707Z,65.65
2018-12-27T08:48:41.692Z,65.44
2018-12-27T08:49:41.684Z,63.67
2018-12-27T08:50:41.699Z,65.34
2018-12-27T08:51:41.658Z,63.78
2018-12-27T08:52:41.655Z,66.27
2018-12-27T08:53:41.642Z,63.15
2018-12-27T08:54:41.639Z,64.06
2018-12-27T08:55:41.651Z,63.12
2018-12-27T08:56:41.684Z,63.33
2018-12-27T08:57:41.599Z,62.08
2018-12-27T08:58:41.588Z,62.71
2018-12-27T08:59:41.573Z,64.06
2018-12-27T09:00:41.570Z,63.72
2018-12-27T09:01:41.590Z,62.57
2018-12-27T09:02:41.544Z,62.29
2018-12-27T09:03:41.535Z,62.60
2018-12-27T09:04:41.527Z,62.99
2018-12-27T09:05:41.554Z,63.96
2018-12-27T09:06:41.504Z,65.28
2018-12-27T09:07:41.518Z,63.41
2018-12-27T09:08:41.478Z,63.33
2018-12-27T09:09:41.470Z,61.74
2018-12-27T09:10:41.459Z,61.64
2018-12-27T09:11:41.453Z,65.80
2018-12-27T09:12:41.459Z,65.31
2018-12-27T09:13:41.461Z,66.97
2018-12-27T09:14:41.418Z,66.24
2018-12-27T09:15:41.411Z,63.23
2018-12-27T09:16:41.445Z,63.31
2018-12-27T09:17:41.458Z,64.65
2018-12-27T09:18:41.376Z,63.20
2018-12-27T09:19:41.371Z,63.62
2018-12-27T09:20:41.349Z,62.99
2018-12-27T09:21:41.341Z,63.31
2018-12-27T09:22:41.355Z,63.20
2018-12-27T09:23:41.342Z,62.88
2018-12-27T09:24:41.314Z,62.45
2018-12-27T09:25:41.303Z,62.76
2018-12-27T09:26:41.291Z,62.96
2018-12-27T09:27:41.281Z,62.76
2018-12-27T09:28:41.272Z,63.48
2018-12-27T09:29:41.287Z,63.07
2018-12-27T09:30:41.246Z,63.69
2018-12-27T09:31:41.232Z,63.38
2018-12-27T09:32:41.230Z,64.00
2018-12-27T09:33:41.213Z,62.41
2018-12-27T09:34:41.205Z,63.38
2018-12-27T09:35:41.211Z,62.10
2018-12-27T09:36:41.200Z,62.45
2018-12-27T09:37:41.194Z,64.18
2018-12-27T09:38:41.243Z,61.58
2018-12-27T09:39:41.169Z,60.72
2018-12-27T09:40:41.136Z,61.45
2018-12-27T09:41:41.124Z,61.66
2018-12-27T09:42:41.121Z,60.91
2018-12-27T09:43:41.122Z,60.39
2018-12-27T09:44:41.098Z,60.08
2018-12-27T09:45:41.101Z,59.66
2018-12-27T09:46:41.087Z,58.94
2018-12-27T09:47:41.065Z,58.83
2018-12-27T09:48:41.049Z,58.94
2018-12-27T09:49:41.040Z,58.91
2018-12-27T09:50:41.055Z,58.49
2018-12-27T09:51:41.032Z,59.22
2018-12-27T09:52:41.007Z,58.78
2018-12-27T09:53:40.996Z,57.22
2018-12-27T09:54:40.985Z,56.47
2018-12-27T09:55:40.973Z,59.27
2018-12-27T09:56:40.992Z,58.85
2018-12-27T09:57:40.984Z,59.86
2018-12-27T09:58:40.995Z,57.79
2018-12-27T09:59:40.987Z,57.79
2018-12-27T10:00:40.929Z,58.62
2018-12-27T10:01:40.920Z,57.97
2018-12-27T10:02:40.930Z,57.56
2018-12-27T10:03:40.897Z,55.18
2018-12-27T10:04:40.877Z,57.53
2018-12-27T10:05:40.871Z,57.84
2018-12-27T10:06:40.860Z,55.77
2018-12-27T10:07:40.852Z,55.33
2018-12-27T10:08:40.864Z,55.95
2018-12-27T10:09:40.825Z,56.13
2018-12-27T10:10:40.814Z,56.75
2018-12-27T10:11:40.801Z,57.09
2018-12-27T10:12:40.798Z,55.74
2018-12-27T10:13:40.802Z,55.22
2018-12-27T10:14:40.792Z,53.57
2018-12-27T10:15:40.765Z,53.34
2018-12-27T10:16:40.748Z,54.89
2018-12-27T10:17:40.743Z,57.27
2018-12-27T10:18:40.735Z,52.62
2018-12-27T10:19:40.886Z,59.13
2018-12-27T10:20:40.790Z,55.59
2018-12-27T10:21:40.703Z,58.69
2018-12-27T10:22:40.687Z,55.38
2018-12-27T10:23:40.690Z,58.38
2018-12-27T10:24:40.687Z,54.25
2018-12-27T10:25:40.656Z,52.39
2018-12-27T10:26:40.646Z,51.45
2018-12-27T10:27:40.637Z,53.63
2018-12-27T10:28:40.619Z,54.97
2018-12-27T10:29:40.651Z,52.80
2018-12-27T10:30:40.604Z,55.36
2018-12-27T10:31:40.587Z,53.70
2018-12-27T10:32:40.584Z,52.26
2018-12-27T10:33:40.569Z,52.59
2018-12-27T10:34:40.589Z,54.02
2018-12-27T10:35:41.308Z,51.84
2018-12-27T10:36:40.851Z,51.02
2018-12-27T10:37:40.529Z,54.32
2018-12-27T10:38:40.520Z,51.54
2018-12-27T10:39:40.514Z,50.60
2018-12-27T10:40:40.541Z,53.39
2018-12-27T10:41:40.560Z,53.91
2018-12-27T10:42:40.471Z,53.29
2018-12-27T10:43:40.465Z,51.33
2018-12-27T10:44:40.455Z,51.84
2018-12-27T10:45:40.460Z,51.64
2018-12-27T10:46:40.429Z,54.02
2018-12-27T10:47:40.439Z,52.67
2018-12-27T10:48:40.406Z,52.98
2018-12-27T10:49:40.397Z,51.02
2018-12-27T10:50:40.387Z,51.20
2018-12-27T10:51:40.397Z,49.76
2018-12-27T10:52:40.368Z,51.31
2018-12-27T10:53:40.356Z,53.06
2018-12-27T10:54:40.345Z,51.39
2018-12-27T10:55:40.329Z,53.34
2018-12-27T10:56:40.325Z,50.66
2018-12-27T10:57:40.339Z,53.14
2018-12-27T10:58:40.307Z,54.79
2018-12-27T10:59:40.292Z,52.83
2018-12-27T11:00:40.275Z,51.79
2018-12-27T11:01:40.299Z,50.76
2018-12-27T11:02:40.338Z,50.66
2018-12-27T11:03:40.260Z,52.21
2018-12-27T11:04:40.241Z,51.39
2018-12-27T11:05:40.244Z,52.42
2018-12-27T11:06:40.215Z,49.32
2018-12-27T11:07:40.207Z,50.04
2018-12-27T11:08:40.215Z,52.11
2018-12-27T11:09:40.180Z,50.64
2018-12-27T11:10:40.172Z,50.23
2018-12-27T11:11:40.164Z,51.36
2018-12-27T11:12:40.146Z,51.67
2018-12-27T11:13:40.139Z,54.25
2018-12-27T11:14:40.145Z,51.59
2018-12-27T11:15:40.113Z,51.70
2018-12-27T11:16:40.124Z,52.70
2018-12-27T11:17:40.097Z,52.81
2018-12-27T11:18:40.102Z,53.74
2018-12-27T11:19:41.092Z,51.78
2018-12-27T11:20:40.061Z,54.77
2018-12-27T11:21:40.107Z,53.01
2018-12-27T11:22:40.083Z,53.32
2018-12-27T11:23:40.106Z,52.60
2018-12-27T11:24:40.043Z,53.22
2018-12-27T11:25:40.015Z,52.50
2018-12-27T11:26:39.997Z,52.78
2018-12-27T11:27:39.986Z,55.15
2018-12-27T11:28:39.980Z,52.96
2018-12-27T11:29:39.985Z,53.91
2018-12-27T11:30:39.955Z,53.40
2018-12-27T11:31:39.949Z,56.77
2018-12-27T11:32:39.930Z,54.61
2018-12-27T11:33:39.932Z,56.98
2018-12-27T11:34:39.936Z,56.26
2018-12-27T11:35:39.901Z,54.48
2018-12-27T11:36:39.892Z,51.60
2018-12-27T11:37:39.880Z,57.78
2018-12-27T11:38:39.869Z,54.48
2018-12-27T11:39:39.862Z,55.10
2018-12-27T11:40:39.863Z,53.66
2018-12-27T11:41:39.836Z,55.00
2018-12-27T11:42:39.836Z,54.07
2018-12-27T11:43:39.869Z,55.21
2018-12-27T11:44:39.815Z,55.69
2018-12-27T11:45:39.808Z,53.43
2018-12-27T11:46:39.803Z,53.22
2018-12-27T11:47:39.767Z,57.03
2018-12-27T11:48:39.764Z,55.57
2018-12-27T11:49:39.757Z,55.87
2018-12-27T11:50:39.739Z,56.08
2018-12-27T11:51:39.750Z,53.61
2018-12-27T11:52:39.719Z,53.20
2018-12-27T11:53:39.715Z,52.78
2018-12-27T11:54:39.719Z,53.61
2018-12-27T11:55:39.683Z,54.22
2018-12-27T11:56:39.676Z,55.74
2018-12-27T11:57:39.669Z,56.87
2018-12-27T11:58:39.654Z,56.98
2018-12-27T11:59:39.637Z,59.14
2018-12-27T12:00:39.658Z,55.23
2018-12-27T12:01:39.622Z,55.64
2018-12-27T12:02:39.612Z,55.64
2018-12-27T12:03:39.602Z,56.05
2018-12-27T12:04:39.627Z,53.89
2018-12-27T12:05:39.647Z,55.30
2018-12-27T12:06:39.600Z,54.49
2018-12-27T12:07:39.551Z,54.90
2018-12-27T12:08:39.546Z,54.79
2018-12-27T12:09:39.534Z,56.44
2018-12-27T12:10:39.523Z,58.39
2018-12-27T12:11:39.517Z,58.29
2018-12-27T12:12:39.528Z,53.15
2018-12-27T12:13:39.487Z,57.46
2018-12-27T12:14:39.478Z,58.50
2018-12-27T12:15:39.471Z,58.91
2018-12-27T12:16:39.457Z,59.83
2018-12-27T12:17:39.448Z,57.16
2018-12-27T12:18:39.455Z,57.26
2018-12-27T12:19:39.421Z,59.14
2018-12-27T12:20:39.419Z,59.86
2018-12-27T12:21:39.407Z,59.24
2018-12-27T12:22:39.414Z,58.83
2018-12-27T12:23:39.383Z,58.73
2018-12-27T12:24:39.395Z,56.57
2018-12-27T12:25:39.392Z,58.73
2018-12-27T12:26:39.395Z,55.57
2018-12-27T12:27:39.335Z,54.74
2018-12-27T12:28:39.334Z,56.08
2018-12-27T12:29:39.317Z,54.64
2018-12-27T12:30:39.326Z,57.42
2018-12-27T12:31:39.293Z,59.27
2018-12-27T12:32:39.288Z,59.27
2018-12-27T12:33:39.274Z,54.64
2018-12-27T12:34:39.265Z,56.87
2018-12-27T12:35:39.261Z,58.75
2018-12-27T12:36:39.259Z,53.38
2018-12-27T12:37:39.252Z,54.74
2018-12-27T12:38:39.217Z,54.92
2018-12-27T12:39:39.226Z,59.75
2018-12-27T12:40:39.199Z,59.68
2018-12-27T12:41:39.187Z,55.46
2018-12-27T12:42:39.194Z,53.41
2018-12-27T12:43:39.168Z,53.92
2018-12-27T12:44:39.153Z,53.50
2018-12-27T12:45:39.155Z,54.64
2018-12-27T12:46:39.162Z,54.74
2018-12-27T12:47:39.211Z,52.58
2018-12-27T12:48:39.108Z,53.20
2018-12-27T12:49:39.101Z,51.96
2018-12-27T12:50:39.091Z,51.45
2018-12-27T12:51:39.081Z,52.37
2018-12-27T12:52:39.317Z,52.06